createdAt,value
2023-01-08T00:01:56.393Z,9.45
2023-01-08T00:04:22.915Z,12.52
2023-01-08T00:06:49.521Z,13.13
2023-01-08T00:09:16.100Z,8.02
2023-01-08T00:11:44.362Z,7.35
2023-01-08T00:14:11.626Z,11.93
2023-01-08T00:16:38.297Z,9.35
2023-01-08T00:19:04.843Z,13.48
2023-01-08T00:21:31.397Z,12.00
2023-01-08T00:23:57.961Z,8.63
2023-01-08T00:26:25.314Z,8.15
2023-01-08T00:28:51.849Z,8.93
2023-01-08T00:31:18.559Z,7.65
2023-01-08T00:33:45.132Z,9.18
2023-01-08T00:36:17.090Z,9.65
2023-01-08T00:38:44.454Z,8.27
2023-01-08T00:41:12.705Z,14.77
2023-01-08T00:43:39.535Z,7.93
2023-01-08T00:46:07.050Z,8.95
2023-01-08T00:48:37.306Z,6.10
2023-01-08T00:51:04.848Z,6.13
2023-01-08T00:53:31.575Z,5.70
2023-01-08T00:56:07.216Z,6.72
2023-01-08T00:58:34.513Z,7.25
2023-01-08T01:01:01.677Z,8.05
2023-01-08T01:03:28.326Z,4.45
2023-01-08T01:06:02.248Z,9.13
2023-01-08T01:08:29.090Z,8.23
2023-01-08T01:10:55.850Z,10.57
2023-01-08T01:13:22.618Z,8.90
2023-01-08T01:16:02.220Z,13.25
2023-01-08T01:18:29.494Z,8.70
2023-01-08T01:20:56.107Z,6.70
2023-01-08T01:23:22.648Z,6.30
2023-01-08T01:25:49.187Z,6.72
2023-01-08T01:28:16.331Z,10.95
2023-01-08T01:30:42.995Z,6.78
2023-01-08T01:33:09.609Z,5.93
2023-01-08T01:35:36.146Z,9.45
2023-01-08T01:38:02.691Z,8.15
2023-01-08T01:40:29.216Z,6.68
2023-01-08T01:42:55.715Z,9.25
2023-01-08T01:45:26.360Z,6.03
2023-01-08T01:47:58.344Z,10.25
2023-01-08T01:50:31.994Z,11.70
2023-01-08T01:53:14.462Z,6.05
2023-01-08T01:55:43.410Z,8.18
2023-01-08T01:58:22.276Z,10.15
2023-01-08T02:00:50.292Z,7.57
2023-01-08T02:03:18.149Z,7.25
2023-01-08T02:05:50.470Z,8.52
2023-01-08T02:08:39.055Z,5.75
2023-01-08T02:11:07.752Z,6.10
2023-01-08T02:13:38.364Z,5.55
2023-01-08T02:16:20.350Z,4.32
2023-01-08T02:18:50.724Z,5.45
2023-01-08T02:21:53.486Z,7.70
2023-01-08T02:25:01.718Z,5.13
2023-01-08T02:27:31.898Z,3.30
2023-01-08T02:29:59.231Z,8.60
2023-01-08T02:32:27.579Z,4.85
2023-01-08T02:34:55.314Z,5.45
2023-01-08T02:37:21.854Z,6.43
2023-01-08T02:40:13.248Z,7.32
2023-01-08T02:42:53.720Z,7.82
2023-01-08T02:45:46.946Z,5.55
2023-01-08T02:48:58.113Z,3.97
2023-01-08T02:51:29.817Z,5.75
2023-01-08T02:54:01.044Z,7.75
2023-01-08T02:56:32.438Z,5.00
2023-01-08T02:59:01.074Z,6.07
2023-01-08T03:01:29.824Z,4.40
2023-01-08T03:04:10.909Z,4.85
2023-01-08T03:06:38.714Z,2.95
2023-01-08T03:09:06.260Z,5.28
2023-01-08T03:11:41.875Z,6.80
2023-01-08T03:14:20.259Z,4.07
2023-01-08T03:17:03.654Z,4.00
2023-01-08T03:19:36.128Z,7.78
2023-01-08T03:22:07.034Z,9.48
2023-01-08T03:24:36.705Z,6.78
2023-01-08T03:27:06.275Z,12.43
2023-01-08T03:29:35.034Z,7.82
2023-01-08T03:32:06.921Z,7.15
2023-01-08T03:34:37.929Z,7.30
2023-01-08T03:37:07.982Z,6.28
2023-01-08T03:39:44.397Z,5.05
2023-01-08T03:42:13.878Z,5.60
2023-01-08T03:44:40.974Z,6.05
2023-01-08T03:47:10.082Z,7.85
2023-01-08T03:49:39.006Z,4.97
2023-01-08T03:52:05.595Z,8.85
2023-01-08T03:54:35.891Z,6.72
2023-01-08T03:57:02.823Z,7.18
2023-01-08T03:59:29.596Z,8.10
2023-01-08T04:01:56.255Z,7.88
2023-01-08T04:04:22.939Z,3.70
2023-01-08T04:06:49.483Z,5.70
2023-01-08T04:09:16.019Z,6.07
2023-01-08T04:11:42.547Z,3.78
2023-01-08T04:14:09.139Z,5.78
2023-01-08T04:16:35.634Z,6.65
2023-01-08T04:19:02.166Z,6.25
2023-01-08T04:21:28.827Z,5.15
2023-01-08T04:23:55.547Z,8.85
2023-01-08T04:26:22.093Z,4.03
2023-01-08T04:28:48.597Z,6.22
2023-01-08T04:31:15.222Z,4.38
2023-01-08T04:33:41.811Z,6.88
2023-01-08T04:36:08.533Z,6.07
2023-01-08T04:38:35.082Z,6.65
2023-01-08T04:41:02.948Z,7.00
2023-01-08T04:43:30.994Z,8.20
2023-01-08T04:46:02.001Z,7.03
2023-01-08T04:48:30.032Z,4.47
2023-01-08T04:51:00.288Z,7.70
2023-01-08T04:53:27.888Z,9.77
2023-01-08T04:55:54.716Z,5.78
2023-01-08T04:58:21.302Z,6.07
2023-01-08T05:00:47.868Z,6.32
2023-01-08T05:03:14.952Z,4.93
2023-01-08T05:05:41.544Z,6.43
2023-01-08T05:08:08.118Z,6.25
2023-01-08T05:10:34.632Z,4.93
2023-01-08T05:13:01.717Z,4.97
2023-01-08T05:15:29.025Z,5.32
2023-01-08T05:18:03.637Z,6.45
2023-01-08T05:20:31.643Z,7.50
2023-01-08T05:22:58.640Z,5.30
2023-01-08T05:25:25.427Z,6.80
2023-01-08T05:27:52.944Z,10.45
2023-01-08T05:30:19.468Z,6.28
2023-01-08T05:32:45.979Z,4.90
2023-01-08T05:35:12.562Z,5.20
2023-01-08T05:37:39.364Z,7.35
2023-01-08T05:40:06.952Z,5.40
2023-01-08T05:42:36.821Z,5.85
2023-01-08T05:45:07.515Z,5.95
2023-01-08T05:47:34.922Z,4.90
2023-01-08T05:50:01.502Z,4.50
2023-01-08T05:52:29.624Z,7.13
2023-01-08T05:54:56.397Z,6.90
2023-01-08T05:57:22.954Z,6.38
2023-01-08T05:59:50.570Z,4.15
2023-01-08T06:02:17.188Z,6.53
2023-01-08T06:04:44.174Z,4.93
2023-01-08T06:07:10.720Z,8.75
2023-01-08T06:09:37.265Z,7.57
2023-01-08T06:12:04.014Z,6.50
2023-01-08T06:14:30.567Z,4.13
2023-01-08T06:16:57.089Z,8.98
2023-01-08T06:19:23.821Z,5.65
2023-01-08T06:21:50.345Z,6.15
2023-01-08T06:24:17.020Z,5.30
2023-01-08T06:26:43.589Z,6.68
2023-01-08T06:29:10.157Z,4.20
2023-01-08T06:31:36.759Z,6.03
2023-01-08T06:34:03.524Z,4.43
2023-01-08T06:36:30.179Z,4.03
2023-01-08T06:38:56.784Z,4.78
2023-01-08T06:41:23.364Z,3.67
2023-01-08T06:43:49.920Z,5.32
2023-01-08T06:46:16.520Z,4.90
2023-01-08T06:48:43.124Z,7.32
2023-01-08T06:51:09.738Z,5.32
2023-01-08T06:53:36.304Z,5.40
2023-01-08T06:56:04.521Z,7.35
2023-01-08T06:58:31.415Z,4.82
2023-01-08T07:00:59.071Z,7.80
2023-01-08T07:03:25.900Z,6.32
2023-01-08T07:05:52.785Z,4.63
2023-01-08T07:08:19.314Z,3.75
2023-01-08T07:10:45.910Z,7.07
2023-01-08T07:13:12.884Z,6.95
2023-01-08T07:15:41.044Z,6.38
2023-01-08T07:18:10.014Z,5.97
2023-01-08T07:20:37.371Z,6.53
2023-01-08T07:23:10.306Z,5.47
2023-01-08T07:25:36.884Z,5.40
2023-01-08T07:28:03.431Z,4.38
2023-01-08T07:30:30.820Z,5.78
2023-01-08T07:33:03.611Z,4.88
2023-01-08T07:35:30.452Z,6.65
2023-01-08T07:37:57.017Z,6.88
2023-01-08T07:40:23.736Z,4.93
2023-01-08T07:42:59.196Z,5.60
2023-01-08T07:45:27.281Z,6.63
2023-01-08T07:47:53.784Z,5.70
2023-01-08T07:50:20.374Z,5.65
2023-01-08T07:52:46.862Z,7.03
2023-01-08T07:55:13.417Z,6.45
2023-01-08T07:57:39.972Z,6.45
2023-01-08T08:00:08.074Z,4.53
2023-01-08T08:02:34.754Z,5.80
2023-01-08T08:05:01.449Z,4.93
2023-01-08T08:07:30.935Z,4.93
2023-01-08T08:09:57.784Z,5.85
2023-01-08T08:12:24.483Z,6.32
2023-01-08T08:14:51.179Z,5.72
2023-01-08T08:17:17.713Z,7.20
2023-01-08T08:19:45.576Z,5.03
2023-01-08T08:22:13.531Z,5.85
2023-01-08T08:24:40.457Z,6.78
2023-01-08T08:27:06.992Z,6.38
2023-01-08T08:29:33.668Z,5.82
2023-01-08T08:32:00.180Z,7.18
2023-01-08T08:34:26.700Z,4.85
2023-01-08T08:36:53.240Z,6.70
2023-01-08T08:39:19.828Z,5.75
2023-01-08T08:41:46.410Z,4.20
2023-01-08T08:44:13.136Z,4.35
2023-01-08T08:46:39.676Z,3.47
2023-01-08T08:49:06.204Z,5.53
2023-01-08T08:51:33.269Z,4.97
2023-01-08T08:53:59.786Z,4.63
2023-01-08T08:56:29.752Z,4.95
2023-01-08T08:58:58.055Z,5.78
2023-01-08T09:01:24.965Z,5.35
2023-01-08T09:03:51.570Z,5.47
2023-01-08T09:06:18.172Z,5.97
2023-01-08T09:08:44.733Z,4.68
2023-01-08T09:11:13.584Z,3.42
2023-01-08T09:13:40.849Z,4.85
2023-01-08T09:16:07.721Z,5.07
2023-01-08T09:18:34.293Z,5.75
2023-01-08T09:21:05.034Z,4.53
2023-01-08T09:23:31.574Z,3.80
2023-01-08T09:26:02.137Z,4.25
2023-01-08T09:28:29.072Z,4.20
2023-01-08T09:30:55.694Z,5.47
2023-01-08T09:33:22.304Z,5.60
2023-01-08T09:35:48.867Z,6.10
2023-01-08T09:38:15.370Z,5.63
2023-01-08T09:40:51.527Z,5.43
2023-01-08T09:43:21.006Z,4.72
2023-01-08T09:45:55.614Z,4.78
2023-01-08T09:48:36.055Z,5.28
2023-01-08T09:51:02.941Z,6.30
2023-01-08T09:53:29.889Z,5.32
2023-01-08T09:56:10.147Z,4.90
2023-01-08T09:58:40.965Z,6.63
2023-01-08T10:01:13.144Z,5.65
2023-01-08T10:04:04.731Z,4.32
2023-01-08T10:06:31.707Z,5.15
2023-01-08T10:08:59.052Z,6.10
2023-01-08T10:11:33.222Z,4.97
2023-01-08T10:13:59.749Z,5.43
2023-01-08T10:16:38.009Z,5.72
2023-01-08T10:19:05.168Z,4.45
2023-01-08T10:21:38.174Z,5.18
2023-01-08T10:24:05.117Z,5.15
2023-01-08T10:26:36.726Z,5.10
2023-01-08T10:29:29.489Z,6.55
2023-01-08T10:31:58.629Z,5.65
2023-01-08T10:34:32.970Z,4.60
2023-01-08T10:37:00.503Z,6.88
2023-01-08T10:42:18.886Z,6.13
2023-01-08T10:50:33.103Z,5.65
2023-01-08T10:53:21.113Z,4.82
2023-01-08T10:55:47.914Z,5.22
2023-01-08T10:58:23.258Z,5.07
2023-01-08T11:00:50.167Z,4.97
2023-01-08T11:03:30.895Z,4.75
2023-01-08T11:05:57.647Z,5.68
2023-01-08T11:08:24.924Z,5.10
2023-01-08T11:11:00.004Z,4.88
2023-01-08T11:13:28.666Z,6.95
2023-01-08T11:16:13.601Z,4.88
2023-01-08T11:18:48.032Z,5.13
2023-01-08T11:21:20.299Z,6.05
2023-01-08T11:23:48.105Z,4.93
2023-01-08T11:26:20.253Z,4.68
2023-01-08T11:29:06.103Z,5.28
2023-01-08T11:31:55.989Z,4.88
2023-01-08T11:34:51.606Z,4.68
2023-01-08T11:37:28.995Z,5.13
2023-01-08T11:39:56.889Z,5.57
2023-01-08T11:48:08.441Z,4.47
2023-01-08T11:50:59.571Z,5.30
2023-01-08T11:53:40.503Z,5.47
2023-01-08T11:56:07.934Z,4.68
2023-01-08T11:59:02.165Z,5.00
2023-01-08T12:01:37.295Z,4.82
2023-01-08T12:04:16.072Z,4.25
2023-01-08T12:07:14.132Z,4.78
2023-01-08T12:09:46.381Z,5.53
2023-01-08T12:12:24.729Z,5.18
2023-01-08T12:15:02.178Z,4.43
2023-01-08T12:17:40.768Z,5.45
2023-01-08T12:20:30.003Z,4.57
2023-01-08T12:23:20.262Z,5.68
2023-01-08T12:26:04.321Z,5.13
2023-01-08T12:28:36.905Z,7.10
2023-01-08T12:31:16.090Z,7.50
2023-01-08T12:33:54.055Z,8.10
2023-01-08T12:36:37.927Z,4.80
2023-01-08T12:39:10.412Z,4.05
2023-01-08T12:41:41.518Z,7.75
2023-01-08T12:44:12.103Z,8.23
2023-01-08T12:46:46.144Z,5.78
2023-01-08T12:49:18.066Z,7.18
2023-01-08T12:52:19.849Z,9.20
2023-01-08T12:55:03.968Z,6.55
2023-01-08T12:57:40.382Z,6.80
2023-01-08T13:00:19.601Z,6.57
2023-01-08T13:02:58.194Z,6.80
2023-01-08T13:05:24.674Z,5.88
2023-01-08T13:07:54.177Z,7.97
2023-01-08T13:10:23.395Z,9.98
2023-01-08T13:12:51.415Z,7.93
2023-01-08T13:15:22.582Z,7.10
2023-01-08T13:17:51.087Z,7.72
2023-01-08T13:20:27.245Z,6.63
2023-01-08T13:22:56.581Z,6.45
2023-01-08T13:25:29.560Z,7.32
2023-01-08T13:27:56.719Z,7.22
2023-01-08T13:30:33.565Z,7.25
2023-01-08T13:33:00.524Z,6.95
2023-01-08T13:35:29.452Z,6.45
2023-01-08T13:37:58.793Z,6.30
2023-01-08T13:43:18.932Z,6.20
2023-01-08T13:45:53.632Z,6.18
2023-01-08T13:48:25.221Z,6.50
2023-01-08T13:50:52.386Z,7.88
2023-01-08T13:53:20.023Z,7.38
2023-01-08T13:55:57.559Z,7.22
2023-01-08T13:58:31.980Z,6.65
2023-01-08T14:01:01.311Z,5.25
2023-01-08T14:03:29.111Z,7.32
2023-01-08T14:06:19.796Z,6.05
2023-01-08T14:09:00.613Z,7.80
2023-01-08T14:11:46.566Z,6.50
2023-01-08T14:14:16.090Z,9.05
2023-01-08T14:16:43.626Z,6.00
2023-01-08T14:19:20.365Z,6.13
2023-01-08T14:21:50.395Z,6.80
2023-01-08T14:24:18.992Z,8.20
2023-01-08T14:26:56.312Z,10.15
2023-01-08T14:29:29.973Z,7.82
2023-01-08T14:31:59.235Z,7.75
2023-01-08T14:34:28.604Z,7.80
2023-01-08T14:45:28.604Z,8.00
2023-01-08T14:48:08.487Z,9.15
2023-01-08T14:50:38.026Z,7.93
2023-01-08T14:53:28.879Z,7.07
2023-01-08T14:55:57.476Z,8.95
2023-01-08T14:58:30.913Z,7.45
2023-01-08T15:01:02.285Z,9.65
2023-01-08T15:03:32.391Z,9.18
2023-01-08T15:05:59.360Z,8.40
2023-01-08T15:08:40.650Z,8.68
2023-01-08T15:11:19.151Z,8.48
2023-01-08T15:13:47.945Z,11.10
2023-01-08T15:16:32.944Z,8.07
2023-01-08T15:19:57.546Z,7.28
2023-01-08T15:22:31.474Z,8.35
2023-01-08T15:25:07.663Z,6.95
2023-01-08T15:27:37.732Z,8.10
2023-01-08T15:30:05.704Z,8.55
2023-01-08T15:32:36.933Z,8.43
2023-01-08T15:35:17.570Z,10.32
2023-01-08T15:37:44.429Z,8.88
2023-01-08T15:40:14.181Z,7.72
2023-01-08T15:42:59.393Z,8.90
2023-01-08T15:45:33.926Z,8.18
2023-01-08T15:48:00.570Z,8.63
2023-01-08T15:50:28.316Z,8.80
2023-01-08T15:52:57.406Z,7.53
2023-01-08T15:55:24.920Z,11.25
2023-01-08T15:57:51.538Z,9.05
2023-01-08T16:00:20.301Z,8.32
2023-01-08T16:02:48.797Z,8.27
2023-01-08T16:05:17.644Z,9.10
2023-01-08T16:07:47.514Z,7.75
2023-01-08T16:10:15.592Z,10.50
2023-01-08T16:12:43.501Z,6.80
2023-01-08T16:15:11.675Z,6.88
2023-01-08T16:17:38.279Z,8.25
2023-01-08T16:20:05.871Z,8.93
2023-01-08T16:22:32.524Z,8.70
2023-01-08T16:24:59.147Z,6.35
2023-01-08T16:27:25.847Z,9.32
2023-01-08T16:29:52.360Z,7.40
2023-01-08T16:32:18.901Z,8.30
2023-01-08T16:34:45.442Z,9.60
2023-01-08T16:37:11.972Z,8.90
2023-01-08T16:39:38.591Z,9.02
2023-01-08T16:42:05.779Z,8.02
2023-01-08T16:44:36.082Z,9.05
2023-01-08T16:47:02.641Z,9.23
2023-01-08T16:49:29.243Z,7.68
2023-01-08T16:51:55.951Z,8.05
2023-01-08T16:54:22.753Z,6.32
2023-01-08T16:56:49.320Z,6.55
2023-01-08T16:59:23.156Z,6.10
2023-01-08T17:01:51.322Z,5.20
2023-01-08T17:04:18.001Z,9.25
2023-01-08T17:06:44.626Z,6.90
2023-01-08T17:09:11.896Z,6.97
2023-01-08T17:11:38.575Z,8.23
2023-01-08T17:14:05.126Z,6.10
2023-01-08T17:16:31.715Z,8.50
2023-01-08T17:18:58.287Z,6.70
2023-01-08T17:21:24.847Z,6.75
2023-01-08T17:23:51.396Z,6.20
2023-01-08T17:26:18.160Z,6.35
2023-01-08T17:28:45.624Z,8.13
2023-01-08T17:31:20.414Z,7.13
2023-01-08T17:33:50.286Z,8.63
2023-01-08T17:36:19.245Z,8.98
2023-01-08T17:38:53.372Z,6.75
2023-01-08T17:41:40.262Z,6.63
2023-01-08T17:44:08.238Z,7.00
2023-01-08T17:46:42.271Z,7.55
2023-01-08T17:49:11.405Z,7.38
2023-01-08T17:51:40.734Z,7.45
2023-01-08T17:54:11.373Z,8.73
2023-01-08T17:56:38.069Z,7.68
2023-01-08T17:59:04.994Z,6.43
2023-01-08T18:01:32.252Z,6.85
2023-01-08T18:03:58.917Z,5.85
2023-01-08T18:06:25.431Z,6.90
2023-01-08T18:08:51.993Z,4.70
2023-01-08T18:11:18.616Z,7.72
2023-01-08T18:13:45.227Z,5.72
2023-01-08T18:16:13.607Z,5.55
2023-01-08T18:18:40.558Z,4.03
2023-01-08T18:21:07.426Z,4.10
2023-01-08T18:23:34.153Z,5.55
2023-01-08T18:26:12.024Z,5.78
2023-01-08T18:28:38.904Z,6.20
2023-01-08T18:31:07.593Z,16.52
2023-01-08T18:33:35.207Z,16.80
2023-01-08T18:36:11.725Z,8.65
2023-01-08T18:38:40.697Z,9.80
2023-01-08T18:41:08.277Z,7.75
2023-01-08T18:43:36.037Z,7.22
2023-01-08T18:46:07.792Z,5.20
2023-01-08T18:48:35.423Z,7.13
2023-01-08T18:51:05.469Z,10.48
2023-01-08T18:53:33.193Z,14.50
2023-01-08T18:56:00.803Z,13.23
2023-01-08T18:58:28.123Z,7.78
2023-01-08T19:00:54.869Z,6.32
2023-01-08T19:03:21.680Z,16.45
2023-01-08T19:05:48.379Z,17.10
2023-01-08T19:08:14.876Z,15.68
2023-01-08T19:10:41.452Z,11.18
2023-01-08T19:13:08.036Z,9.13
2023-01-08T19:15:34.569Z,5.70
2023-01-08T19:18:01.112Z,6.65
2023-01-08T19:20:28.149Z,12.23
2023-01-08T19:22:55.334Z,9.85
2023-01-08T19:25:22.014Z,8.05
2023-01-08T19:27:48.751Z,7.75
2023-01-08T19:30:15.668Z,7.97
2023-01-08T19:32:42.231Z,7.03
2023-01-08T19:35:09.282Z,6.75
2023-01-08T19:37:35.787Z,5.88
2023-01-08T19:40:02.343Z,7.57
2023-01-08T19:42:47.479Z,6.25
2023-01-08T19:45:14.159Z,7.30
2023-01-08T19:47:40.750Z,9.05
2023-01-08T19:50:08.474Z,8.35
2023-01-08T19:52:35.037Z,8.00
2023-01-08T19:55:01.606Z,8.32
2023-01-08T19:57:28.197Z,8.65
2023-01-08T19:59:54.791Z,8.98
2023-01-08T20:02:21.446Z,10.45
2023-01-08T20:04:47.990Z,10.73
2023-01-08T20:07:14.975Z,12.18
2023-01-08T20:09:42.360Z,11.13
2023-01-08T20:12:09.687Z,14.68
2023-01-08T20:14:36.541Z,15.38
2023-01-08T20:17:03.532Z,11.98
2023-01-08T20:19:30.669Z,10.43
2023-01-08T20:21:58.937Z,8.55
2023-01-08T20:24:25.937Z,8.35
2023-01-08T20:26:52.518Z,8.98
2023-01-08T20:29:19.190Z,9.43
2023-01-08T20:31:45.969Z,8.57
2023-01-08T20:34:15.530Z,8.85
2023-01-08T20:36:43.303Z,7.65
2023-01-08T20:39:14.052Z,8.35
2023-01-08T20:41:46.533Z,8.43
2023-01-08T20:44:22.273Z,8.70
2023-01-08T20:46:48.841Z,9.10
2023-01-08T20:49:17.759Z,7.93
2023-01-08T20:51:54.392Z,8.57
2023-01-08T20:54:25.082Z,8.93
2023-01-08T20:56:51.690Z,9.57
2023-01-08T20:59:18.289Z,7.32
2023-01-08T21:01:44.939Z,6.03
2023-01-08T21:04:12.008Z,5.35
2023-01-08T21:06:38.832Z,5.90
2023-01-08T21:09:08.218Z,4.03
2023-01-08T21:11:39.997Z,6.78
2023-01-08T21:14:08.101Z,4.57
2023-01-08T21:16:35.669Z,6.22
2023-01-08T21:19:03.623Z,7.00
2023-01-08T21:21:33.630Z,6.25
2023-01-08T21:24:04.457Z,7.70
2023-01-08T21:26:33.727Z,5.30
2023-01-08T21:29:03.110Z,6.25
2023-01-08T21:31:29.990Z,6.03
2023-01-08T21:33:58.749Z,6.38
2023-01-08T21:36:27.251Z,7.97
2023-01-08T21:38:56.718Z,8.93
2023-01-08T21:41:43.840Z,8.57
2023-01-08T21:44:43.370Z,8.05
2023-01-08T21:47:13.376Z,7.45
2023-01-08T21:49:40.479Z,8.23
2023-01-08T21:52:25.802Z,7.03
2023-01-08T21:54:53.694Z,7.90
2023-01-08T21:57:20.418Z,6.50
2023-01-08T21:59:50.193Z,7.28
2023-01-08T22:02:18.757Z,7.63
2023-01-08T22:04:45.724Z,7.68
2023-01-08T22:07:12.882Z,6.97
2023-01-08T22:09:39.588Z,7.53
2023-01-08T22:12:06.938Z,8.38
2023-01-08T22:14:34.402Z,7.90
2023-01-08T22:17:01.035Z,7.20
2023-01-08T22:19:27.637Z,8.65
2023-01-08T22:21:54.353Z,6.95
2023-01-08T22:24:20.932Z,10.45
2023-01-08T22:26:48.640Z,8.35
2023-01-08T22:29:15.188Z,7.75
2023-01-08T22:31:41.776Z,7.97
2023-01-08T22:34:09.398Z,8.95
2023-01-08T22:36:36.022Z,9.43
2023-01-08T22:39:02.503Z,9.00
2023-01-08T22:41:29.059Z,10.43
2023-01-08T22:43:56.799Z,10.02
2023-01-08T22:46:24.887Z,10.48
2023-01-08T22:48:51.659Z,8.07
2023-01-08T22:51:20.704Z,7.85
2023-01-08T22:53:47.223Z,9.95
2023-01-08T22:56:14.409Z,8.95
2023-01-08T22:58:42.427Z,9.40
2023-01-08T23:01:17.972Z,10.10
2023-01-08T23:03:44.794Z,9.05
2023-01-08T23:06:13.158Z,8.48
2023-01-08T23:08:41.163Z,11.60
2023-01-08T23:11:10.051Z,8.60
2023-01-08T23:13:37.577Z,11.32
2023-01-08T23:16:05.191Z,10.10
2023-01-08T23:18:31.858Z,8.88
2023-01-08T23:21:12.423Z,11.45
2023-01-08T23:23:39.456Z,9.15
2023-01-08T23:26:27.239Z,11.27
2023-01-08T23:28:55.283Z,8.85
2023-01-08T23:31:25.045Z,8.20
2023-01-08T23:33:51.681Z,9.77
2023-01-08T23:36:20.982Z,9.20
2023-01-08T23:38:52.969Z,11.38
2023-01-08T23:41:23.062Z,8.57
2023-01-08T23:43:50.183Z,9.05
2023-01-08T23:46:17.495Z,10.93
2023-01-08T23:48:44.184Z,10.70
2023-01-08T23:51:10.776Z,10.43
2023-01-08T23:53:37.376Z,5.50
2023-01-08T23:56:04.155Z,7.05
2023-01-08T23:58:30.782Z,11.27
